createdAt,value
2023-01-08T00:01:15.859Z,89.70
2023-01-08T00:02:16.739Z,89.81
2023-01-08T00:03:16.949Z,89.81
2023-01-08T00:04:16.772Z,89.81
2023-01-08T00:05:16.863Z,89.18
2023-01-08T00:06:16.771Z,88.25
2023-01-08T00:07:16.765Z,88.56
2023-01-08T00:08:16.661Z,88.77
2023-01-08T00:09:16.782Z,88.67
2023-01-08T00:10:16.630Z,88.46
2023-01-08T00:11:16.756Z,88.35
2023-01-08T00:12:16.651Z,88.52
2023-01-08T00:13:17.042Z,88.42
2023-01-08T00:14:16.569Z,88.42
2023-01-08T00:15:16.821Z,88.00
2023-01-08T00:16:16.787Z,87.38
2023-01-08T00:17:16.684Z,86.76
2023-01-08T00:18:16.581Z,86.55
2023-01-08T00:19:16.757Z,87.27
2023-01-08T00:20:16.496Z,86.55
2023-01-08T00:21:16.705Z,85.82
2023-01-08T00:22:16.579Z,85.72
2023-01-08T00:23:16.434Z,85.30
2023-01-08T00:24:16.751Z,85.41
2023-01-08T00:25:16.414Z,85.20
2023-01-08T00:26:16.631Z,86.44
2023-01-08T00:27:16.487Z,87.17
2023-01-08T00:28:16.401Z,87.48
2023-01-08T00:29:16.670Z,87.03
2023-01-08T00:30:16.408Z,85.36
2023-01-08T00:31:16.568Z,84.99
2023-01-08T00:32:16.353Z,85.36
2023-01-08T00:33:16.446Z,84.95
2023-01-08T00:34:16.335Z,85.16
2023-01-08T00:35:16.600Z,86.30
2023-01-08T00:36:16.304Z,84.95
2023-01-08T00:37:16.367Z,85.05
2023-01-08T00:38:16.282Z,85.16
2023-01-08T00:39:16.398Z,84.05
2023-01-08T00:40:16.250Z,84.05
2023-01-08T00:41:16.485Z,85.20
2023-01-08T00:42:16.336Z,85.10
2023-01-08T00:43:16.294Z,84.47
2023-01-08T00:44:16.225Z,84.78
2023-01-08T00:45:16.509Z,85.20
2023-01-08T00:46:16.233Z,85.51
2023-01-08T00:47:16.425Z,85.72
2023-01-08T00:48:16.250Z,85.30
2023-01-08T00:49:16.186Z,85.61
2023-01-08T00:50:16.391Z,85.30
2023-01-08T00:51:16.121Z,85.61
2023-01-08T00:52:16.297Z,85.20
2023-01-08T00:53:16.277Z,85.30
2023-01-08T00:54:16.259Z,85.41
2023-01-08T00:55:16.318Z,85.82
2023-01-08T00:56:16.052Z,86.24
2023-01-08T00:57:16.289Z,86.34
2023-01-08T00:58:16.053Z,86.55
2023-01-08T00:59:16.222Z,87.45
2023-01-08T01:00:16.156Z,86.93
2023-01-08T01:01:16.318Z,86.82
2023-01-08T01:02:16.093Z,87.03
2023-01-08T01:03:16.231Z,85.99
2023-01-08T01:04:16.013Z,85.57
2023-01-08T01:05:16.036Z,85.36
2023-01-08T01:06:15.974Z,85.26
2023-01-08T01:07:16.164Z,84.53
2023-01-08T01:08:15.924Z,84.33
2023-01-08T01:09:16.078Z,84.27
2023-01-08T01:10:15.876Z,84.47
2023-01-08T01:11:16.080Z,84.58
2023-01-08T01:12:15.855Z,84.47
2023-01-08T01:13:16.153Z,84.37
2023-01-08T01:14:16.024Z,84.37
2023-01-08T01:15:15.792Z,84.05
2023-01-08T01:16:15.957Z,84.58
2023-01-08T01:17:15.790Z,84.27
2023-01-08T01:18:15.951Z,84.20
2023-01-08T01:19:16.014Z,86.17
2023-01-08T01:20:15.767Z,85.96
2023-01-08T01:21:15.851Z,85.61
2023-01-08T01:22:15.771Z,85.44
2023-01-08T01:23:16.016Z,85.41
2023-01-08T01:24:15.781Z,85.20
2023-01-08T01:25:15.792Z,85.10
2023-01-08T01:26:15.671Z,84.89
2023-01-08T01:27:15.780Z,84.78
2023-01-08T01:28:15.685Z,84.89
2023-01-08T01:29:15.798Z,85.20
2023-01-08T01:30:15.636Z,85.61
2023-01-08T01:31:15.832Z,85.61
2023-01-08T01:32:15.626Z,85.20
2023-01-08T01:33:15.788Z,85.41
2023-01-08T01:34:15.627Z,86.34
2023-01-08T01:35:15.754Z,86.13
2023-01-08T01:36:15.555Z,86.03
2023-01-08T01:37:15.652Z,86.65
2023-01-08T01:38:15.564Z,86.86
2023-01-08T01:39:15.691Z,86.76
2023-01-08T01:40:15.699Z,86.65
2023-01-08T01:41:15.465Z,86.41
2023-01-08T01:42:15.700Z,86.51
2023-01-08T01:43:15.448Z,86.61
2023-01-08T01:44:15.781Z,86.41
2023-01-08T01:45:15.425Z,86.30
2023-01-08T01:46:15.759Z,85.78
2023-01-08T01:47:15.405Z,85.41
2023-01-08T01:48:15.611Z,85.61
2023-01-08T01:49:15.401Z,85.82
2023-01-08T01:50:15.667Z,86.03
2023-01-08T01:51:15.357Z,87.07
2023-01-08T01:52:15.572Z,87.79
2023-01-08T01:53:15.350Z,87.90
2023-01-08T01:54:15.508Z,88.42
2023-01-08T01:55:15.324Z,89.36
2023-01-08T01:56:15.599Z,89.67
2023-01-08T01:57:15.278Z,88.94
2023-01-08T01:58:15.582Z,88.84
2023-01-08T01:59:15.250Z,89.46
2023-01-08T02:00:16.613Z,89.15
2023-01-08T02:01:15.272Z,88.94
2023-01-08T02:02:15.481Z,88.52
2023-01-08T02:03:15.215Z,88.00
2023-01-08T02:04:15.481Z,87.55
2023-01-08T02:05:15.186Z,88.38
2023-01-08T02:06:15.370Z,89.46
2023-01-08T02:07:15.155Z,89.77
2023-01-08T02:08:15.767Z,89.52
2023-01-08T02:09:15.163Z,89.11
2023-01-08T02:10:15.399Z,89.31
2023-01-08T02:11:15.145Z,88.79
2023-01-08T02:12:15.419Z,88.38
2023-01-08T02:13:15.111Z,88.17
2023-01-08T02:14:15.221Z,88.17
2023-01-08T02:15:15.066Z,87.65
2023-01-08T02:16:15.405Z,87.96
2023-01-08T02:17:15.028Z,88.17
2023-01-08T02:18:15.247Z,87.82
2023-01-08T02:19:15.038Z,87.71
2023-01-08T02:20:15.219Z,87.40
2023-01-08T02:21:14.984Z,87.09
2023-01-08T02:22:15.284Z,86.78
2023-01-08T02:23:14.951Z,86.68
2023-01-08T02:24:15.082Z,86.78
2023-01-08T02:25:14.919Z,86.68
2023-01-08T02:26:15.244Z,86.47
2023-01-08T02:27:14.895Z,86.68
2023-01-08T02:28:15.219Z,86.47
2023-01-08T02:29:14.884Z,86.26
2023-01-08T02:30:15.114Z,86.36
2023-01-08T02:31:14.900Z,86.47
2023-01-08T02:32:15.192Z,86.57
2023-01-08T02:33:14.833Z,86.68
2023-01-08T02:34:15.089Z,86.68
2023-01-08T02:35:14.799Z,86.68
2023-01-08T02:36:14.952Z,86.78
2023-01-08T02:37:14.774Z,86.26
2023-01-08T02:38:15.022Z,85.95
2023-01-08T02:39:14.748Z,85.95
2023-01-08T02:40:15.001Z,86.05
2023-01-08T02:41:14.719Z,85.74
2023-01-08T02:42:14.947Z,85.74
2023-01-08T02:43:14.702Z,85.43
2023-01-08T02:44:14.912Z,85.64
2023-01-08T02:45:14.698Z,85.64
2023-01-08T02:46:14.851Z,85.64
2023-01-08T02:47:14.655Z,85.64
2023-01-08T02:48:14.839Z,85.43
2023-01-08T02:49:14.617Z,85.53
2023-01-08T02:50:14.902Z,85.85
2023-01-08T02:51:14.599Z,85.74
2023-01-08T02:52:14.874Z,85.43
2023-01-08T02:53:14.857Z,85.02
2023-01-08T02:54:14.609Z,85.33
2023-01-08T02:55:14.669Z,85.43
2023-01-08T02:56:14.554Z,85.22
2023-01-08T02:57:14.793Z,85.33
2023-01-08T02:58:14.545Z,85.53
2023-01-08T02:59:14.699Z,85.53
2023-01-08T03:00:14.606Z,85.12
2023-01-08T03:01:14.679Z,84.50
2023-01-08T03:02:14.578Z,84.29
2023-01-08T03:03:14.744Z,84.29
2023-01-08T03:04:14.518Z,84.67
2023-01-08T03:05:14.668Z,84.77
2023-01-08T03:06:14.506Z,84.88
2023-01-08T03:07:14.557Z,84.46
2023-01-08T03:08:14.399Z,84.46
2023-01-08T03:09:14.584Z,83.94
2023-01-08T03:10:14.357Z,84.36
2023-01-08T03:11:14.488Z,84.25
2023-01-08T03:12:14.357Z,83.84
2023-01-08T03:13:14.496Z,83.84
2023-01-08T03:14:14.298Z,83.53
2023-01-08T03:15:14.620Z,84.39
2023-01-08T03:16:14.384Z,84.60
2023-01-08T03:17:14.447Z,84.60
2023-01-08T03:18:14.258Z,84.50
2023-01-08T03:19:14.890Z,84.50
2023-01-08T03:20:14.250Z,84.60
2023-01-08T03:21:14.458Z,84.70
2023-01-08T03:22:14.247Z,84.60
2023-01-08T03:23:14.492Z,84.39
2023-01-08T03:24:14.207Z,84.29
2023-01-08T03:25:14.483Z,84.19
2023-01-08T03:26:14.159Z,84.60
2023-01-08T03:27:14.451Z,84.60
2023-01-08T03:28:14.131Z,84.50
2023-01-08T03:29:14.406Z,84.29
2023-01-08T03:30:14.093Z,84.70
2023-01-08T03:31:14.470Z,85.12
2023-01-08T03:32:14.152Z,85.02
2023-01-08T03:33:14.339Z,84.70
2023-01-08T03:34:14.061Z,84.60
2023-01-08T03:35:14.271Z,85.22
2023-01-08T03:36:14.025Z,85.43
2023-01-08T03:37:14.218Z,85.64
2023-01-08T03:38:13.993Z,85.22
2023-01-08T03:39:14.283Z,85.33
2023-01-08T03:40:13.974Z,85.36
2023-01-08T03:41:14.293Z,85.36
2023-01-08T03:42:13.984Z,85.64
2023-01-08T03:43:14.113Z,85.64
2023-01-08T03:44:13.949Z,85.12
2023-01-08T03:45:14.108Z,85.22
2023-01-08T03:46:13.991Z,85.74
2023-01-08T03:47:14.028Z,85.85
2023-01-08T03:48:13.912Z,85.33
2023-01-08T03:49:14.039Z,85.64
2023-01-08T03:50:13.859Z,85.74
2023-01-08T03:51:14.059Z,85.12
2023-01-08T03:52:13.828Z,84.91
2023-01-08T03:53:14.123Z,84.70
2023-01-08T03:54:13.794Z,84.70
2023-01-08T03:55:13.978Z,85.02
2023-01-08T03:56:13.782Z,84.91
2023-01-08T03:57:13.996Z,84.81
2023-01-08T03:58:13.785Z,84.39
2023-01-08T03:59:14.015Z,84.70
2023-01-08T04:00:13.728Z,85.12
2023-01-08T04:01:14.053Z,85.12
2023-01-08T04:02:13.876Z,85.02
2023-01-08T04:03:13.940Z,84.81
2023-01-08T04:04:13.769Z,86.05
2023-01-08T04:05:13.858Z,86.88
2023-01-08T04:06:13.847Z,86.68
2023-01-08T04:07:13.663Z,85.74
2023-01-08T04:08:13.803Z,85.74
2023-01-08T04:09:13.648Z,85.02
2023-01-08T04:10:13.780Z,84.91
2023-01-08T04:11:13.609Z,85.64
2023-01-08T04:12:13.920Z,87.30
2023-01-08T04:13:13.626Z,87.61
2023-01-08T04:14:13.801Z,87.92
2023-01-08T04:15:13.585Z,87.40
2023-01-08T04:16:13.746Z,86.99
2023-01-08T04:17:13.555Z,86.78
2023-01-08T04:18:13.740Z,86.99
2023-01-08T04:19:13.501Z,87.71
2023-01-08T04:20:13.747Z,87.82
2023-01-08T04:21:13.505Z,87.92
2023-01-08T04:22:13.648Z,88.44
2023-01-08T04:23:13.485Z,88.85
2023-01-08T04:24:14.693Z,88.85
2023-01-08T04:25:13.449Z,88.96
2023-01-08T04:26:13.675Z,89.27
2023-01-08T04:27:13.612Z,89.37
2023-01-08T04:28:13.408Z,89.27
2023-01-08T04:29:14.660Z,89.37
2023-01-08T04:30:13.345Z,89.48
2023-01-08T04:31:15.772Z,89.48
2023-01-08T04:32:35.554Z,89.48
2023-01-08T04:33:13.308Z,89.48
2023-01-08T04:34:14.573Z,89.58
2023-01-08T04:35:13.294Z,89.65
2023-01-08T04:36:15.548Z,89.34
2023-01-08T04:37:13.260Z,88.78
2023-01-08T04:38:14.511Z,88.46
2023-01-08T04:39:13.255Z,88.21
2023-01-08T04:41:27.045Z,87.38
2023-01-08T04:42:25.622Z,87.07
2023-01-08T04:44:39.462Z,87.18
2023-01-08T04:45:38.047Z,87.18
2023-01-08T04:46:46.143Z,87.49
2023-01-08T04:47:38.025Z,87.59
2023-01-08T04:48:39.342Z,87.59
2023-01-08T04:49:38.003Z,87.59
2023-01-08T04:50:40.392Z,87.63
2023-01-08T04:51:38.030Z,87.63
2023-01-08T04:52:38.251Z,87.53
2023-01-08T04:53:37.930Z,87.53
2023-01-08T04:54:40.218Z,87.63
2023-01-08T04:55:39.689Z,87.63
2023-01-08T04:56:40.285Z,87.63
2023-01-08T04:57:37.903Z,87.74
2023-01-08T04:58:59.238Z,87.63
2023-01-08T04:59:37.928Z,87.63
2023-01-08T05:00:37.991Z,87.74
2023-01-08T05:01:37.998Z,87.95
2023-01-08T05:02:39.330Z,88.26
2023-01-08T05:03:39.044Z,88.36
2023-01-08T05:04:37.819Z,88.67
2023-01-08T05:05:38.017Z,88.88
2023-01-08T05:06:37.836Z,88.98
2023-01-08T05:07:39.063Z,89.09
2023-01-08T05:08:38.921Z,89.09
2023-01-08T05:09:37.789Z,89.09
2023-01-08T05:10:37.942Z,89.25
2023-01-08T05:11:37.737Z,89.25
2023-01-08T05:12:37.926Z,89.36
2023-01-08T05:13:37.704Z,89.46
2023-01-08T05:14:37.975Z,89.67
2023-01-08T05:15:37.792Z,89.67
2023-01-08T05:16:37.781Z,89.67
2023-01-08T05:17:37.691Z,89.56
2023-01-08T05:18:38.823Z,89.46
2023-01-08T05:19:38.514Z,89.21
2023-01-08T05:20:37.825Z,89.11
2023-01-08T05:21:37.610Z,89.00
2023-01-08T05:22:37.812Z,89.00
2023-01-08T05:23:37.623Z,89.00
2023-01-08T05:24:37.851Z,89.62
2023-01-08T05:25:37.573Z,89.48
2023-01-08T05:26:37.744Z,89.28
2023-01-08T05:27:37.536Z,88.86
2023-01-08T05:28:37.797Z,88.45
2023-01-08T05:29:37.693Z,88.13
2023-01-08T05:30:37.474Z,88.09
2023-01-08T05:31:37.685Z,87.88
2023-01-08T05:32:37.451Z,87.99
2023-01-08T05:33:37.766Z,88.09
2023-01-08T05:34:37.463Z,88.30
2023-01-08T05:35:37.629Z,88.61
2023-01-08T05:36:37.397Z,88.71
2023-01-08T05:37:37.656Z,88.82
2023-01-08T05:38:37.401Z,88.92
2023-01-08T05:39:37.685Z,89.86
2023-01-08T05:40:37.352Z,89.92
2023-01-08T05:41:37.587Z,89.92
2023-01-08T05:42:37.309Z,89.71
2023-01-08T05:43:37.379Z,89.81
2023-01-08T05:44:37.326Z,90.02
2023-01-08T05:45:37.592Z,89.81
2023-01-08T05:46:37.341Z,89.56
2023-01-08T05:47:37.293Z,89.56
2023-01-08T05:48:37.246Z,89.87
2023-01-08T05:49:37.318Z,90.08
2023-01-08T05:50:37.459Z,90.29
2023-01-08T05:51:37.220Z,90.39
2023-01-08T05:52:37.317Z,90.29
2023-01-08T05:53:37.195Z,90.60
2023-01-08T05:54:37.439Z,90.80
2023-01-08T05:55:37.204Z,90.60
2023-01-08T05:56:37.469Z,90.80
2023-01-08T05:57:37.140Z,91.11
2023-01-08T05:58:37.262Z,91.11
2023-01-08T05:59:37.121Z,90.91
2023-01-08T06:00:37.277Z,90.80
2023-01-08T06:01:37.135Z,90.39
2023-01-08T06:02:37.251Z,90.29
2023-01-08T06:03:37.063Z,90.35
2023-01-08T06:04:37.242Z,90.66
2023-01-08T06:05:37.035Z,91.17
2023-01-08T06:06:37.146Z,91.49
2023-01-08T06:07:37.036Z,91.59
2023-01-08T06:08:37.132Z,91.49
2023-01-08T06:09:37.010Z,91.69
2023-01-08T06:10:37.057Z,91.80
2023-01-08T06:11:37.169Z,91.90
2023-01-08T06:12:36.931Z,91.80
2023-01-08T06:13:37.115Z,91.69
2023-01-08T06:14:36.895Z,91.49
2023-01-08T06:15:37.177Z,91.38
2023-01-08T06:16:36.884Z,91.07
2023-01-08T06:17:36.996Z,90.97
2023-01-08T06:18:36.874Z,90.80
2023-01-08T06:19:36.907Z,90.60
2023-01-08T06:20:36.868Z,90.56
2023-01-08T06:21:36.918Z,90.56
2023-01-08T06:22:36.815Z,90.35
2023-01-08T06:23:36.936Z,90.35
2023-01-08T06:24:36.786Z,90.35
2023-01-08T06:25:36.894Z,90.52
2023-01-08T06:26:36.761Z,90.52
2023-01-08T06:27:38.357Z,90.83
2023-01-08T06:28:36.753Z,90.83
2023-01-08T06:29:36.786Z,90.93
2023-01-08T06:30:36.727Z,90.89
2023-01-08T06:31:36.839Z,90.99
2023-01-08T06:32:36.670Z,90.68
2023-01-08T06:33:36.816Z,90.78
2023-01-08T06:34:36.647Z,90.99
2023-01-08T06:35:36.822Z,91.20
2023-01-08T06:36:36.660Z,90.89
2023-01-08T06:37:36.831Z,91.09
2023-01-08T06:38:36.615Z,91.20
2023-01-08T06:39:36.746Z,91.09
2023-01-08T06:40:36.592Z,90.99
2023-01-08T06:41:36.807Z,91.20
2023-01-08T06:42:36.550Z,91.20
2023-01-08T06:43:36.696Z,91.40
2023-01-08T06:44:36.518Z,90.99
2023-01-08T06:45:36.672Z,90.89
2023-01-08T06:46:36.530Z,91.30
2023-01-08T06:47:36.644Z,90.99
2023-01-08T06:48:36.483Z,91.05
2023-01-08T06:49:36.640Z,90.95
2023-01-08T06:50:36.451Z,90.95
2023-01-08T06:51:36.677Z,90.84
2023-01-08T06:52:36.427Z,90.95
2023-01-08T06:53:36.655Z,91.16
2023-01-08T06:54:36.399Z,90.95
2023-01-08T06:55:36.666Z,91.05
2023-01-08T06:56:52.388Z,90.95
2023-01-08T06:57:36.379Z,90.74
2023-01-08T06:58:36.543Z,90.84
2023-01-08T06:59:36.400Z,91.05
2023-01-08T07:00:36.457Z,90.95
2023-01-08T07:01:36.427Z,91.05
2023-01-08T07:02:36.841Z,91.05
2023-01-08T07:03:36.402Z,90.84
2023-01-08T07:04:36.377Z,90.95
2023-01-08T07:05:36.360Z,90.70
2023-01-08T07:06:36.456Z,90.70
2023-01-08T07:07:36.263Z,90.80
2023-01-08T07:08:36.447Z,90.49
2023-01-08T07:09:36.269Z,89.77
2023-01-08T07:10:36.505Z,89.52
2023-01-08T07:11:36.616Z,89.62
2023-01-08T07:12:36.485Z,89.01
2023-01-08T07:13:36.315Z,89.22
2023-01-08T07:14:36.581Z,89.32
2023-01-08T07:15:36.538Z,89.11
2023-01-08T07:16:36.420Z,89.11
2023-01-08T07:17:36.131Z,89.17
2023-01-08T07:18:36.443Z,88.96
2023-01-08T07:19:37.101Z,89.07
2023-01-08T07:20:36.086Z,89.38
2023-01-08T07:21:36.224Z,89.17
2023-01-08T07:22:36.046Z,89.48
2023-01-08T07:23:36.148Z,89.07
2023-01-08T07:24:36.009Z,89.07
2023-01-08T07:25:36.098Z,89.28
2023-01-08T07:26:35.987Z,89.38
2023-01-08T07:27:36.160Z,89.28
2023-01-08T07:28:35.950Z,89.48
2023-01-08T07:29:36.169Z,89.48
2023-01-08T07:30:35.970Z,89.17
2023-01-08T07:31:36.074Z,89.28
2023-01-08T07:32:35.907Z,89.28
2023-01-08T07:33:36.913Z,89.48
2023-01-08T07:34:36.164Z,89.58
2023-01-08T07:35:36.069Z,89.69
2023-01-08T07:36:35.906Z,89.69
2023-01-08T07:37:37.152Z,89.58
2023-01-08T07:38:35.870Z,89.89
2023-01-08T07:39:36.061Z,90.10
2023-01-08T07:40:38.467Z,89.89
2023-01-08T07:41:37.262Z,89.89
2023-01-08T07:42:35.942Z,90.10
2023-01-08T07:43:35.785Z,90.10
2023-01-08T07:44:35.975Z,90.00
2023-01-08T07:45:37.024Z,90.20
2023-01-08T07:46:36.468Z,90.31
2023-01-08T07:47:35.787Z,90.26
2023-01-08T07:48:35.812Z,90.26
2023-01-08T07:49:35.724Z,90.51
2023-01-08T07:50:35.996Z,90.47
2023-01-08T07:51:35.691Z,90.72
2023-01-08T07:52:35.834Z,90.92
2023-01-08T07:53:35.648Z,90.92
2023-01-08T07:54:35.897Z,90.92
2023-01-08T07:55:36.357Z,91.13
2023-01-08T07:56:35.772Z,91.24
2023-01-08T07:57:35.651Z,91.24
2023-01-08T07:58:35.653Z,91.13
2023-01-08T07:59:35.554Z,91.13
2023-01-08T08:00:36.771Z,90.82
2023-01-08T08:01:35.794Z,90.61
2023-01-08T08:02:35.772Z,90.92
2023-01-08T08:03:35.772Z,91.03
2023-01-08T08:04:35.551Z,91.03
2023-01-08T08:05:35.696Z,91.03
2023-01-08T08:06:35.517Z,90.61
2023-01-08T08:07:35.782Z,90.61
2023-01-08T08:08:35.554Z,90.67
2023-01-08T08:09:35.559Z,90.88
2023-01-08T08:10:41.723Z,91.09
2023-01-08T08:11:35.610Z,91.03
2023-01-08T08:12:35.457Z,90.31
2023-01-08T08:13:35.480Z,90.51
2023-01-08T08:14:35.402Z,90.57
2023-01-08T08:15:35.450Z,90.57
2023-01-08T08:16:36.423Z,90.47
2023-01-08T08:17:35.417Z,90.47
2023-01-08T08:18:35.399Z,90.47
2023-01-08T08:19:35.547Z,90.57
2023-01-08T08:20:35.354Z,90.47
2023-01-08T08:21:35.502Z,90.57
2023-01-08T08:22:35.554Z,90.57
2023-01-08T08:23:36.809Z,90.37
2023-01-08T08:24:35.444Z,90.37
2023-01-08T08:25:35.231Z,90.67
2023-01-08T08:26:35.401Z,90.78
2023-01-08T08:27:35.424Z,90.78
2023-01-08T08:28:35.254Z,90.88
2023-01-08T08:29:35.331Z,90.78
2023-01-08T08:30:35.448Z,90.78
2023-01-08T08:31:35.482Z,90.37
2023-01-08T08:32:35.177Z,90.26
2023-01-08T08:33:35.283Z,90.57
2023-01-08T08:34:36.634Z,90.88
2023-01-08T08:35:35.308Z,90.88
2023-01-08T08:36:35.141Z,90.99
2023-01-08T08:37:35.158Z,91.30
2023-01-08T08:38:35.120Z,91.30
2023-01-08T08:39:35.113Z,91.30
2023-01-08T08:40:35.073Z,91.30
2023-01-08T08:41:35.264Z,91.30
2023-01-08T08:42:35.088Z,91.09
2023-01-08T08:43:35.048Z,91.09
2023-01-08T08:44:35.054Z,90.78
2023-01-08T08:45:35.065Z,90.67
2023-01-08T08:46:35.082Z,90.47
2023-01-08T08:47:35.105Z,90.26
2023-01-08T08:48:35.227Z,90.26
2023-01-08T08:49:34.954Z,90.16
2023-01-08T08:50:35.296Z,89.85
2023-01-08T08:51:34.957Z,89.85
2023-01-08T08:52:36.180Z,89.85
2023-01-08T08:53:34.909Z,89.75
2023-01-08T08:54:35.141Z,89.85
2023-01-08T08:55:34.911Z,89.50
2023-01-08T08:56:34.975Z,89.40
2023-01-08T08:57:34.850Z,89.40
2023-01-08T08:58:35.041Z,89.29
2023-01-08T08:59:34.801Z,89.09
2023-01-08T09:00:34.986Z,88.99
2023-01-08T09:01:34.957Z,89.19
2023-01-08T09:02:35.181Z,88.99
2023-01-08T09:03:34.934Z,88.68
2023-01-08T09:04:34.860Z,88.26
2023-01-08T09:05:34.766Z,86.93
2023-01-08T09:06:35.831Z,87.54
2023-01-08T09:07:34.739Z,87.75
2023-01-08T09:08:34.902Z,87.85
2023-01-08T09:09:34.661Z,87.96
2023-01-08T09:10:34.856Z,87.96
2023-01-08T09:11:34.645Z,87.54
2023-01-08T09:12:34.845Z,88.06
2023-01-08T09:13:34.649Z,87.75
2023-01-08T09:14:35.419Z,87.85
2023-01-08T09:15:34.624Z,87.65
2023-01-08T09:16:34.827Z,87.85
2023-01-08T09:17:34.580Z,88.17
2023-01-08T09:18:34.845Z,87.34
2023-01-08T09:19:34.629Z,87.54
2023-01-08T09:20:34.722Z,87.19
2023-01-08T09:21:34.539Z,87.40
2023-01-08T09:22:34.737Z,87.30
2023-01-08T09:23:34.504Z,87.51
2023-01-08T09:24:34.641Z,87.51
2023-01-08T09:25:34.738Z,86.99
2023-01-08T09:26:34.634Z,86.88
2023-01-08T09:27:34.459Z,86.68
2023-01-08T09:28:34.703Z,87.09
2023-01-08T09:29:34.416Z,86.68
2023-01-08T09:30:34.546Z,86.79
2023-01-08T09:31:34.523Z,87.09
2023-01-08T09:32:34.473Z,86.27
2023-01-08T09:33:34.362Z,86.16
2023-01-08T09:34:34.502Z,86.06
2023-01-08T09:35:34.483Z,86.13
2023-01-08T09:36:34.412Z,86.43
2023-01-08T09:37:34.514Z,86.13
2023-01-08T09:38:34.335Z,86.33
2023-01-08T09:39:34.517Z,85.82
2023-01-08T09:40:34.383Z,85.92
2023-01-08T09:41:34.291Z,85.61
2023-01-08T09:42:34.358Z,86.02
2023-01-08T09:43:34.209Z,86.23
2023-01-08T09:44:34.921Z,85.92
2023-01-08T09:45:34.237Z,85.71
2023-01-08T09:46:34.573Z,85.82
2023-01-08T09:47:34.213Z,85.61
2023-01-08T09:48:34.618Z,85.41
2023-01-08T09:49:34.271Z,84.58
2023-01-08T09:50:34.290Z,84.79
2023-01-08T09:51:34.164Z,84.99
2023-01-08T09:52:34.307Z,84.79
2023-01-08T09:53:34.124Z,84.69
2023-01-08T09:54:34.326Z,84.99
2023-01-08T09:55:34.070Z,84.48
2023-01-08T09:56:34.476Z,84.27
2023-01-08T09:57:34.584Z,84.17
2023-01-08T09:58:34.168Z,84.38
2023-01-08T09:59:34.322Z,83.97
2023-01-08T10:00:34.714Z,84.07
2023-01-08T10:01:36.191Z,84.07
2023-01-08T10:02:34.813Z,84.17
2023-01-08T10:03:34.204Z,83.76
2023-01-08T10:04:33.996Z,83.00
2023-01-08T10:05:34.230Z,83.31
2023-01-08T10:06:33.992Z,82.90
2023-01-08T10:07:33.995Z,83.11
2023-01-08T10:08:33.982Z,82.39
2023-01-08T10:09:33.998Z,82.69
2023-01-08T10:10:33.987Z,82.39
2023-01-08T10:11:34.025Z,82.14
2023-01-08T10:12:33.895Z,81.21
2023-01-08T10:13:34.003Z,81.42
2023-01-08T10:14:33.923Z,82.04
2023-01-08T10:15:33.948Z,82.45
2023-01-08T10:16:33.911Z,81.93
2023-01-08T10:17:33.982Z,82.04
2023-01-08T10:18:34.243Z,81.93
2023-01-08T10:19:33.989Z,81.62
2023-01-08T10:20:34.439Z,81.42
2023-01-08T10:21:34.007Z,82.14
2023-01-08T10:22:33.907Z,80.91
2023-01-08T10:23:33.739Z,81.21
2023-01-08T10:24:34.032Z,80.80
2023-01-08T10:25:33.725Z,81.11
2023-01-08T10:26:34.223Z,81.11
2023-01-08T10:27:33.742Z,80.91
2023-01-08T10:28:34.141Z,81.48
2023-01-08T10:29:33.679Z,81.21
2023-01-08T10:30:33.804Z,81.52
2023-01-08T10:31:33.663Z,81.21
2023-01-08T10:32:33.781Z,80.77
2023-01-08T10:33:33.749Z,80.56
2023-01-08T10:34:33.779Z,80.46
2023-01-08T10:35:33.687Z,80.97
2023-01-08T10:36:33.728Z,80.25
2023-01-08T10:37:33.555Z,80.46
2023-01-08T10:38:34.155Z,80.46
2023-01-08T10:39:33.593Z,80.46
2023-01-08T10:40:33.695Z,80.46
2023-01-08T10:41:33.700Z,79.74
2023-01-08T10:42:33.671Z,79.80
2023-01-08T10:43:33.774Z,80.32
2023-01-08T10:44:33.704Z,79.60
2023-01-08T10:45:33.999Z,80.11
2023-01-08T10:46:33.615Z,79.08
2023-01-08T10:47:33.868Z,79.60
2023-01-08T10:48:33.698Z,79.29
2023-01-08T10:49:33.478Z,78.98
2023-01-08T10:50:33.578Z,79.15
2023-01-08T10:51:34.040Z,79.15
2023-01-08T10:52:33.996Z,78.43
2023-01-08T10:53:33.400Z,77.92
2023-01-08T10:54:33.542Z,77.51
2023-01-08T10:55:33.338Z,78.12
2023-01-08T10:56:34.062Z,78.50
2023-01-08T10:57:34.109Z,78.19
2023-01-08T10:58:33.555Z,78.09
2023-01-08T10:59:33.343Z,77.88
2023-01-08T11:00:33.414Z,77.47
2023-01-08T11:01:33.380Z,78.19
2023-01-08T11:02:34.414Z,77.78
2023-01-08T11:03:33.274Z,77.26
2023-01-08T11:04:33.376Z,76.65
2023-01-08T11:05:33.888Z,76.45
2023-01-08T11:06:33.431Z,76.92
2023-01-08T11:07:33.148Z,76.62
2023-01-08T11:08:33.455Z,76.92
2023-01-08T11:09:33.466Z,76.41
2023-01-08T11:10:33.148Z,75.69
2023-01-08T11:11:33.223Z,76.20
2023-01-08T11:12:33.130Z,75.90
2023-01-08T11:13:33.278Z,76.10
2023-01-08T11:14:33.115Z,76.20
2023-01-08T11:15:33.585Z,76.20
2023-01-08T11:16:34.847Z,76.00
2023-01-08T11:17:33.625Z,76.20
2023-01-08T11:18:34.052Z,76.92
2023-01-08T11:19:33.645Z,76.41
2023-01-08T11:20:33.389Z,76.41
2023-01-08T11:21:33.145Z,76.00
2023-01-08T11:22:33.228Z,76.82
2023-01-08T11:23:33.112Z,75.83
2023-01-08T11:24:33.283Z,76.10
2023-01-08T11:25:33.319Z,76.04
2023-01-08T11:26:33.676Z,76.24
2023-01-08T11:27:33.294Z,76.34
2023-01-08T11:28:32.939Z,76.04
2023-01-08T11:29:32.936Z,76.41
2023-01-08T11:30:33.033Z,76.72
2023-01-08T11:31:32.942Z,76.04
2023-01-08T11:32:32.990Z,76.86
2023-01-08T11:33:33.185Z,76.14
2023-01-08T11:34:33.055Z,76.00
2023-01-08T11:35:32.806Z,76.31
2023-01-08T11:36:33.053Z,76.72
2023-01-08T11:37:32.853Z,76.20
2023-01-08T11:38:33.004Z,76.58
2023-01-08T11:39:32.762Z,76.37
2023-01-08T11:40:32.849Z,75.45
2023-01-08T11:41:32.770Z,75.56
2023-01-08T11:42:33.800Z,75.31
2023-01-08T11:43:32.916Z,74.56
2023-01-08T11:44:32.869Z,74.05
2023-01-08T11:45:32.848Z,73.50
2023-01-08T11:46:32.890Z,73.40
2023-01-08T11:47:33.069Z,72.89
2023-01-08T11:48:32.917Z,72.89
2023-01-08T11:49:32.674Z,73.71
2023-01-08T11:50:32.772Z,73.10
2023-01-08T11:51:32.771Z,73.81
2023-01-08T11:52:32.649Z,73.03
2023-01-08T11:53:32.745Z,73.23
2023-01-08T11:54:32.632Z,73.74
2023-01-08T11:55:32.758Z,73.95
2023-01-08T11:56:32.786Z,74.05
2023-01-08T11:57:32.694Z,73.95
2023-01-08T11:58:32.885Z,74.36
2023-01-08T11:59:32.720Z,74.46
2023-01-08T12:00:32.977Z,73.23
2023-01-08T12:01:32.552Z,73.44
2023-01-08T12:02:32.646Z,73.95
2023-01-08T12:03:32.584Z,73.85
2023-01-08T12:04:32.680Z,73.85
2023-01-08T12:05:32.430Z,72.72
2023-01-08T12:06:32.548Z,73.03
2023-01-08T12:07:32.417Z,73.40
2023-01-08T12:08:32.664Z,73.44
2023-01-08T12:09:32.713Z,73.23
2023-01-08T12:10:32.581Z,73.85
2023-01-08T12:11:32.392Z,73.88
2023-01-08T12:12:32.474Z,74.29
2023-01-08T12:13:32.488Z,74.49
2023-01-08T12:14:32.451Z,74.66
2023-01-08T12:15:32.348Z,74.70
2023-01-08T12:16:32.562Z,74.80
2023-01-08T12:17:32.484Z,74.60
2023-01-08T12:18:32.261Z,74.60
2023-01-08T12:19:33.539Z,73.95
2023-01-08T12:20:32.219Z,73.74
2023-01-08T12:21:32.296Z,73.64
2023-01-08T12:22:32.355Z,73.57
2023-01-08T12:23:32.317Z,73.98
2023-01-08T12:24:32.192Z,74.08
2023-01-08T12:25:32.419Z,74.19
2023-01-08T12:26:32.242Z,74.08
2023-01-08T12:27:55.255Z,73.68
2023-01-08T12:28:32.705Z,73.47
2023-01-08T12:29:32.161Z,73.54
2023-01-08T12:30:32.340Z,73.23
2023-01-08T12:31:32.140Z,73.54
2023-01-08T12:32:32.313Z,73.95
2023-01-08T12:33:32.133Z,74.39
2023-01-08T12:34:32.262Z,73.88
2023-01-08T12:35:32.052Z,73.78
2023-01-08T12:36:32.075Z,73.57
2023-01-08T12:37:32.494Z,74.39
2023-01-08T12:38:32.133Z,74.70
2023-01-08T12:39:32.025Z,74.53
2023-01-08T12:40:32.084Z,74.32
2023-01-08T12:41:31.969Z,73.50
2023-01-08T12:42:32.310Z,74.12
2023-01-08T12:43:32.192Z,73.91
2023-01-08T12:44:32.625Z,73.61
2023-01-08T12:45:32.299Z,73.71
2023-01-08T12:46:31.942Z,74.12
2023-01-08T12:47:32.645Z,73.02
2023-01-08T12:48:31.899Z,73.23
2023-01-08T12:49:32.441Z,73.64
2023-01-08T12:50:31.854Z,74.15
2023-01-08T12:51:32.205Z,74.05
2023-01-08T12:52:31.874Z,74.15
2023-01-08T12:53:32.110Z,74.77
2023-01-08T12:54:31.827Z,74.15
2023-01-08T12:55:32.108Z,74.05